KAMG/AMG METAR and TAF weather

Enter ICAO airport designator
Station Type Date Time Source
KAMG METAR 2021/09/24 14:53 UTC NOAA

KAMG 241453Z AUTO VRB03KT 10SM CLR 23/15 A3010 RMK AO2 SLP189 T02280150 53015 $


Station Type Date Time Source
KAMG Decoded METAR 2021/09/24 14:53 UTC NOAA

ALMA BACON COUNTY AIRPORT, GA, United States (KAMG) 31-32N 82-30W 59M
Sep 24, 2021 - 10:53 AM EDT / 2021.09.24 1453 UTC
Wind: Variable at 3 MPH (3 KT):0
Visibility: 10 mile(s):0
Sky conditions: clear
Temperature: 73.0 F (22.8 C)
Dew Point: 59.0 F (15.0 C)
Relative Humidity: 61%
Pressure (altimeter): 30.1 in. Hg (1019 hPa)
Pressure tendency: 0.04 inches (1.5 hPa) higher than three hours ago
ob: KAMG 241453Z AUTO VRB03KT 10SM CLR 23/15 A3010 RMK AO2 SLP189 T02280150 53015
cycle: 15

Station Type Date Time Source
KAMG TAF UTC NOAA

Error!

Example: see airport list